• Join FlightAware (Why Join?)
  • Login
  • US Flag 
10:29AM EDT


 

Airport Tracker/Info


-or-


 

Live Flight TrackerFlight Track Log ✈ KLM1072 ✈ 15-May-2013 ✈ EGCC / MAN - EHAM / AMS

Flight Track Log - Related Links

Times and Time Zones

All times are in EDT time to prevent confusion due to time zone crossing. See the KLM1072 flight status page for this flight to view local times or setup timezone preferences in your user account.

Time Position Orientation Groundspeed Altitude Reporting Facility
EDT Latitude Longitude Course Direction KTS MPH feet Rate Location/Type
01:07AM 53.2407 -1.3339 101° East  Level Estimated
01:08AM 53.2301 -1.2486 102° East  Level Estimated
01:09AM 53.2194 -1.1634 102° East  Level Estimated
01:10AM 53.2086 -1.0782 102° East  Level Estimated
01:11AM 53.1978 -0.9930 102° East  Level Estimated
01:12AM 53.1869 -0.9079 102° East  Level Estimated
01:13AM 53.1760 -0.8228 102° East  Level Estimated
01:14AM 53.1650 -0.7377 102° East  Level Estimated
01:15AM 53.1539 -0.6527 102° East  Level Estimated
01:16AM 53.1428 -0.5678 102° East  Level Estimated
01:17AM 53.1316 -0.4829 102° East  Level Estimated
01:18AM 53.1203 -0.3980 102° East  Level Estimated
01:19AM 53.1090 -0.3132 102° East  Level Estimated
01:20AM 53.0977 -0.2284 103° East  Level Estimated
01:21AM 53.0862 -0.1437 103° East  Level Estimated
01:22AM 53.0747 -0.0590 103° East  Level Estimated
01:23AM 53.0632 0.0257 103° East  Level Estimated
01:24AM 53.0516 0.1102 103° East  Level Estimated
01:25AM 53.0399 0.1948 103° East  Level Estimated
01:26AM 53.0282 0.2793 103° East  Level Estimated
01:27AM 53.0164 0.3638 103° East  Level Estimated
01:28AM 53.0045 0.4482 103° East  Level Estimated
01:29AM 52.9853 0.5844 103° East  Level Estimated
01:30AM 52.9659 0.7206 103° East  Level Estimated
01:31AM 52.9463 0.8566 103° East  Level Estimated
01:32AM 52.9266 0.9925 103° East  Level Estimated
01:33AM 52.9067 1.1282 104° East  Level Estimated
01:34AM 52.8866 1.2639 104° East  Level Estimated
01:35AM 52.8664 1.3994 104° East  Level Estimated
01:36AM 52.8461 1.5348 104° East  Level Estimated
01:37AM 52.8256 1.6700 104° East  Level Estimated
01:38AM 52.8049 1.8052 104° East  Level Estimated
01:39AM 52.7841 1.9402 104° East  Level Estimated
01:40AM 52.7632 2.0750 104° East  Level Estimated
01:41AM 52.7421 2.2098 104° East  Level Estimated
01:42AM 52.7208 2.3444 105° East  Level Estimated
01:43AM 52.6994 2.4789 105° East  Level Estimated
01:44AM 52.6778 2.6132 105° East  Level Estimated
01:45AM 52.6596 2.7258 105° East  Level Estimated
01:46AM 52.6413 2.8383 105° East  Level Estimated
01:47AM 52.6228 2.9507 105° East  Level Estimated
01:48AM 52.6043 3.0629 105° East  Level Estimated
01:49AM 52.5857 3.1751 105° East  Level Estimated
01:50AM 52.5669 3.2873 105° East  Level Estimated
01:51AM 52.5481 3.3993 105° East  Level Estimated
01:52AM 52.5291 3.5112 106° East  Level Estimated
01:53AM 52.5101 3.6230 106° East  Level Estimated
01:54AM 52.4909 3.7347 106° East  Level Estimated
01:55AM 52.4716 3.8463 106° East  Level Estimated
01:56AM 52.4523 3.9578 106° East  Level Estimated
01:57AM 52.4328 4.0693 106° East  Level Estimated
01:58AM 52.4132 4.1806 106° East  Level Estimated
01:59AM 52.3941 4.2883 106° East  Level Estimated
02:00AM 52.3750 4.3960 106° East  Level Estimated
02:01AM 52.3557 4.5036 106° East  Level Estimated
02:02AM 52.3363 4.6110 106° East  Level Estimated
02:03AM 52.3169 4.7184 106° East  Level Estimated
02:04AM 52.3086 4.7639 107° East  Level Estimated
02:05AM 52.3086 4.7639 348° North  Level Estimated
02:06AM 52.3086 4.7639 348° North  Level Estimated
02:07AM 52.3086 4.7639 348° North  Level Estimated
02:08AM 52.3086 4.7639 348° North  Level Estimated
02:09AM 52.3086 4.7639 348° North  Level Estimated
02:10AM 52.3086 4.7639 348° North  Level Estimated
02:11AM 52.3086 4.7639 348° North  Level Estimated
02:12AM 52.3086 4.7639 348° North  Level Estimated
02:13AM 52.3086 4.7639 348° North  Level Estimated
02:14AM 52.3086 4.7639 348° North  Level Estimated
02:15AM 52.3086 4.7639 348° North  Level Estimated
02:16AM 52.3086 4.7639 348° North  Level Estimated